createdAt,value
2019-05-17T00:00:50.501Z,100606.70
2019-05-17T00:06:57.052Z,100599.74
2019-05-17T00:13:03.088Z,100587.83
2019-05-17T00:19:09.461Z,100578.65
2019-05-17T00:25:16.970Z,100575.59
2019-05-17T00:31:22.809Z,100573.88
2019-05-17T00:37:30.360Z,100555.77
2019-05-17T00:43:36.825Z,100544.02
2019-05-17T00:49:43.119Z,100541.86
2019-05-17T00:55:49.138Z,100530.00
2019-05-17T01:01:56.229Z,100533.41
2019-05-17T01:08:02.243Z,100529.95
2019-05-17T01:14:07.965Z,100520.73
2019-05-17T01:20:14.230Z,100526.81
2019-05-17T01:26:20.194Z,100518.09
2019-05-17T01:32:26.643Z,100505.45
2019-05-17T01:38:32.964Z,100502.83
2019-05-17T01:44:38.769Z,100498.15
2019-05-17T01:50:46.457Z,100491.46
2019-05-17T01:56:52.373Z,100486.16
2019-05-17T02:02:58.577Z,100484.37
2019-05-17T02:09:06.353Z,100474.69
2019-05-17T02:15:16.471Z,100473.82
2019-05-17T02:21:22.710Z,100470.69
2019-05-17T02:27:34.784Z,100470.38
2019-05-17T02:33:36.220Z,100465.93
2019-05-17T02:39:56.574Z,100458.47
2019-05-17T02:45:52.504Z,100458.47
2019-05-17T02:51:57.359Z,100457.51
2019-05-17T02:58:03.661Z,100450.45
2019-05-17T03:04:12.811Z,100452.23
2019-05-17T03:10:27.516Z,100451.77
2019-05-17T03:16:26.315Z,100448.68
2019-05-17T03:22:33.192Z,100449.58
2019-05-17T03:28:42.447Z,100445.70
2019-05-17T03:34:55.305Z,100436.47
2019-05-17T03:41:09.465Z,100429.97
2019-05-17T03:47:04.688Z,100430.84
2019-05-17T03:53:13.149Z,100433.98
2019-05-17T03:59:20.569Z,100437.02
2019-05-17T04:05:33.777Z,100421.62
2019-05-17T04:11:42.708Z,100421.16
2019-05-17T04:17:47.495Z,100418.17
2019-05-17T04:23:53.964Z,100416.80
2019-05-17T04:29:59.913Z,100412.75
2019-05-17T04:36:06.034Z,100415.89
2019-05-17T04:42:13.615Z,100407.13
2019-05-17T04:48:23.011Z,100402.31
2019-05-17T04:54:27.282Z,100403.56
2019-05-17T05:00:34.012Z,100395.59
2019-05-17T05:06:43.405Z,100397.72
2019-05-17T05:12:48.306Z,100400.41
2019-05-17T05:18:55.402Z,100398.47
2019-05-17T05:25:02.182Z,100398.71
2019-05-17T05:31:08.149Z,100406.50
2019-05-17T05:37:14.121Z,100400.30
2019-05-17T05:43:22.359Z,100405.52
2019-05-17T05:49:27.585Z,100403.20
2019-05-17T05:55:33.448Z,100407.03
2019-05-17T06:01:41.889Z,100403.42
2019-05-17T06:07:48.591Z,100397.58
2019-05-17T06:13:54.343Z,100395.73
2019-05-17T06:20:02.381Z,100395.43
2019-05-17T06:26:08.035Z,100395.81
2019-05-17T06:32:13.870Z,100390.36
2019-05-17T06:38:19.598Z,100383.36
2019-05-17T06:44:25.373Z,100389.27
2019-05-17T06:50:32.729Z,100382.87
2019-05-17T06:56:38.623Z,100376.64
2019-05-17T07:02:44.402Z,100378.55
2019-05-17T07:08:50.189Z,100370.28
2019-05-17T07:14:58.331Z,100367.50
2019-05-17T07:21:03.743Z,100361.45
2019-05-17T07:27:09.962Z,100361.73
2019-05-17T07:33:15.981Z,100363.69
2019-05-17T07:39:22.347Z,100354.63
2019-05-17T07:45:29.554Z,100360.95
2019-05-17T07:51:35.576Z,100352.30
2019-05-17T07:57:41.803Z,100338.84
2019-05-17T08:03:50.093Z,100333.27
2019-05-17T08:09:56.188Z,100323.31
2019-05-17T08:16:02.159Z,100311.25
2019-05-17T08:22:29.369Z,100302.36
2019-05-17T08:28:35.200Z,100304.62
2019-05-17T08:34:40.967Z,100294.48
2019-05-17T08:40:47.113Z,100295.16
2019-05-17T08:46:53.222Z,100291.89
2019-05-17T08:52:59.927Z,100293.95
2019-05-17T08:59:06.159Z,100289.98
2019-05-17T09:05:12.019Z,100288.84
2019-05-17T09:11:19.672Z,100274.81
2019-05-17T09:17:25.499Z,100273.67
2019-05-17T09:23:31.501Z,100271.89
2019-05-17T09:29:37.279Z,100267.05
2019-05-17T09:35:42.999Z,100271.98
2019-05-17T09:41:50.309Z,100269.59
2019-05-17T09:47:56.173Z,100269.91
2019-05-17T09:54:01.942Z,100259.43
2019-05-17T10:00:09.920Z,100250.20
2019-05-17T10:06:15.926Z,100255.13
2019-05-17T10:12:22.213Z,100251.34
2019-05-17T10:18:29.585Z,100249.92
2019-05-17T10:24:38.971Z,100247.00
2019-05-17T10:30:43.232Z,100236.87
2019-05-17T10:36:50.644Z,100240.08
2019-05-17T10:42:56.566Z,100233.23
2019-05-17T10:49:02.279Z,100231.29
2019-05-17T10:55:10.412Z,100232.66
2019-05-17T11:01:15.652Z,100231.61
2019-05-17T11:07:21.462Z,100237.58
2019-05-17T11:13:27.304Z,100223.50
2019-05-17T11:19:33.075Z,100231.86
2019-05-17T11:25:45.095Z,100236.03
2019-05-17T11:31:46.363Z,100238.69
2019-05-17T11:37:52.251Z,100245.90
2019-05-17T11:43:58.274Z,100250.00
2019-05-17T11:50:04.418Z,100257.83
2019-05-17T11:56:10.539Z,100239.20
2019-05-17T12:02:21.276Z,100244.45
2019-05-17T12:08:26.111Z,100244.75
2019-05-17T12:14:31.905Z,100242.33
2019-05-17T12:20:37.682Z,100242.03
2019-05-17T12:26:47.206Z,100237.42
2019-05-17T12:32:52.841Z,100234.80
2019-05-17T12:38:58.760Z,100232.98
2019-05-17T12:45:04.861Z,100230.73
2019-05-17T12:51:10.716Z,100229.31
2019-05-17T12:57:16.619Z,100225.52
2019-05-17T13:03:22.441Z,100226.98
2019-05-17T13:09:28.283Z,100219.20
2019-05-17T13:15:34.023Z,100219.87
2019-05-17T13:21:39.789Z,100215.91
2019-05-17T13:27:45.903Z,100214.73
2019-05-17T13:33:51.877Z,100217.48
2019-05-17T13:39:57.601Z,100215.05
2019-05-17T13:46:03.337Z,100213.41
2019-05-17T13:52:09.057Z,100202.94
2019-05-17T13:58:14.835Z,100206.81
2019-05-17T14:04:20.670Z,100196.86
2019-05-17T14:10:29.897Z,100191.89
2019-05-17T14:16:34.952Z,100188.30
2019-05-17T14:22:40.825Z,100190.05
2019-05-17T14:28:46.795Z,100187.48
2019-05-17T14:34:52.916Z,100190.61
2019-05-17T14:41:08.209Z,100190.33
2019-05-17T14:47:06.408Z,100186.27
2019-05-17T14:53:12.356Z,100182.87
2019-05-17T14:59:18.184Z,100185.44
2019-05-17T15:05:23.946Z,100180.02
2019-05-17T15:11:29.737Z,100172.80
2019-05-17T15:17:35.545Z,100176.19
2019-05-17T15:23:41.264Z,100170.92
2019-05-17T15:29:47.371Z,100160.73
2019-05-17T15:35:53.252Z,100161.36
2019-05-17T15:41:59.247Z,100145.31
2019-05-17T15:48:05.041Z,100147.45
2019-05-17T15:54:11.055Z,100145.70
2019-05-17T16:00:17.067Z,100138.05
2019-05-17T16:06:23.286Z,100123.62
2019-05-17T16:12:29.042Z,100113.07
2019-05-17T16:18:34.829Z,100115.61
2019-05-17T16:24:40.621Z,100110.33
2019-05-17T16:30:46.418Z,100103.44
2019-05-17T16:36:52.163Z,100099.23
2019-05-17T16:42:58.001Z,100094.60
2019-05-17T16:49:03.740Z,100089.02
2019-05-17T16:55:09.583Z,100090.51
2019-05-17T17:01:15.412Z,100085.90
2019-05-17T17:07:21.192Z,100085.11
2019-05-17T17:13:33.244Z,100079.94
2019-05-17T17:19:34.691Z,100076.59
2019-05-17T17:25:40.595Z,100079.12
2019-05-17T17:31:46.484Z,100076.12
2019-05-17T17:37:52.485Z,100072.39
2019-05-17T17:43:59.540Z,100070.47
2019-05-17T17:50:05.633Z,100078.86
2019-05-17T17:56:13.532Z,100076.47
2019-05-17T18:02:19.181Z,100076.59
2019-05-17T18:08:24.975Z,100076.64
2019-05-17T18:14:31.047Z,100074.45
2019-05-17T18:20:37.445Z,100078.05
2019-05-17T18:26:43.685Z,100071.32
2019-05-17T18:32:49.720Z,100074.41
2019-05-17T18:38:56.539Z,100072.66
2019-05-17T18:45:02.357Z,100075.44
2019-05-17T18:51:08.228Z,100071.63
2019-05-17T18:57:14.819Z,100079.23
2019-05-17T19:03:20.664Z,100077.22
2019-05-17T19:09:26.733Z,100073.32
2019-05-17T19:15:32.745Z,100079.34
2019-05-17T19:21:38.570Z,100077.98
2019-05-17T19:27:44.479Z,100089.59
2019-05-17T19:33:50.628Z,100091.27
2019-05-17T19:39:57.890Z,100099.38
2019-05-17T19:46:06.419Z,100107.84
2019-05-17T19:52:12.407Z,100109.20
2019-05-17T19:58:18.526Z,100110.39
2019-05-17T20:04:24.391Z,100107.91
2019-05-17T20:10:30.228Z,100110.05
2019-05-17T20:16:36.009Z,100115.57
2019-05-17T20:22:42.132Z,100115.57
2019-05-17T20:28:48.704Z,100111.52
2019-05-17T20:34:54.726Z,100110.63
2019-05-17T20:41:00.751Z,100103.22
2019-05-17T20:47:06.744Z,100109.48
2019-05-17T20:53:19.054Z,100104.11
2019-05-17T20:59:20.579Z,100111.92
2019-05-17T21:05:26.440Z,100106.95
2019-05-17T21:11:32.227Z,100109.08
2019-05-17T21:17:38.006Z,100107.02
2019-05-17T21:23:43.899Z,100108.82
2019-05-17T21:29:50.130Z,100111.73
2019-05-17T21:35:56.484Z,100103.33
2019-05-17T21:42:02.320Z,100109.55
2019-05-17T21:48:08.137Z,100103.65
2019-05-17T21:54:14.044Z,100098.36
2019-05-17T22:01:07.878Z,100098.30
2019-05-17T22:07:13.988Z,100102.13
2019-05-17T22:13:19.964Z,100101.08
2019-05-17T22:19:26.013Z,100099.84
2019-05-17T22:25:32.006Z,100096.30
2019-05-17T22:31:39.027Z,100088.92
2019-05-17T22:37:45.208Z,100093.32
2019-05-17T22:43:51.160Z,100096.66
2019-05-17T22:49:57.070Z,100088.04
2019-05-17T22:56:03.070Z,100089.73
2019-05-17T23:02:08.865Z,100086.28
2019-05-17T23:08:14.930Z,100083.33
2019-05-17T23:14:20.873Z,100074.39
2019-05-17T23:20:33.323Z,100081.01
2019-05-17T23:26:39.136Z,100067.66
2019-05-17T23:32:44.909Z,100072.22
2019-05-17T23:38:51.097Z,100072.78
2019-05-17T23:44:57.219Z,100077.22
2019-05-17T23:51:03.057Z,100072.03
2019-05-17T23:57:09.018Z,100073.49
